LIPH/TSF METAR and TAF weather

Enter ICAO airport designator
Station Type Date Time Source
LIPH METAR 2023/03/30 23:20 UTC NOAA

LIPH 302320Z AUTO 05004KT 020V080 9999 FEW034/// BKN070/// 11/09 Q1018


Station Type Date Time Source
LIPH Decoded METAR 2023/03/30 23:20 UTC NOAA

Treviso / S. Angelo, Italy (LIPH) 45-39N 012-11E 23M
Mar 30, 2023 - 07:50 PM EDT / 2023.03.30 2350 UTC
Wind: from the NNE (030 degrees) at 3 MPH (3 KT):0
Visibility: greater than 7 mile(s):0
Sky conditions: mostly cloudy
Temperature: 51 F (11 C)
Dew Point: 48 F (9 C)
Relative Humidity: 87%
Pressure (altimeter): 30.06 in. Hg (1018 hPa)
ob: LIPH 302350Z AUTO 03003KT 9999 FEW024/// BKN033/// 11/09 Q1018
cycle: 0

Station Type Date Time Source
LIPH TAF 2023/03/30 18:38 UTC NOAA

TAF LIPH 301700Z 3018/3118 VRB05KT 9999 SCT020 BKN050
TEMPO 3116/3118 RA

Example: see airport list